sensor_id;sensor_type;location;lat;lon;timestamp;temperature;humidity
22842;DHT22;11587;47.064;15.444;2022-08-19T00:01:27;20.60;99.90
22842;DHT22;11587;47.064;15.444;2022-08-19T00:03:56;20.60;99.90
22842;DHT22;11587;47.064;15.444;2022-08-19T00:06:22;20.60;99.90
22842;DHT22;11587;47.064;15.444;2022-08-19T00:08:48;20.60;99.90
22842;DHT22;11587;47.064;15.444;2022-08-19T00:11:13;20.60;99.90
22842;DHT22;11587;47.064;15.444;2022-08-19T00:13:39;20.50;99.90
22842;DHT22;11587;47.064;15.444;2022-08-19T00:16:06;20.50;99.90
22842;DHT22;11587;47.064;15.444;2022-08-19T00:18:33;20.40;99.90
22842;DHT22;11587;47.064;15.444;2022-08-19T00:20:59;20.40;99.90
22842;DHT22;11587;47.064;15.444;2022-08-19T00:23:26;20.30;99.90
22842;DHT22;11587;47.064;15.444;2022-08-19T00:30:43;20.50;99.90
22842;DHT22;11587;47.064;15.444;2022-08-19T00:33:10;20.40;99.90
22842;DHT22;11587;47.064;15.444;2022-08-19T00:35:36;20.40;99.90
22842;DHT22;11587;47.064;15.444;2022-08-19T00:38:04;20.30;99.90
22842;DHT22;11587;47.064;15.444;2022-08-19T00:42:57;20.40;99.90
22842;DHT22;11587;47.064;15.444;2022-08-19T00:45:24;20.30;99.90
22842;DHT22;11587;47.064;15.444;2022-08-19T00:47:51;20.30;99.90
22842;DHT22;11587;47.064;15.444;2022-08-19T00:50:19;20.20;99.90
22842;DHT22;11587;47.064;15.444;2022-08-19T00:52:49;20.30;99.90
22842;DHT22;11587;47.064;15.444;2022-08-19T00:57:46;20.20;99.90
22842;DHT22;11587;47.064;15.444;2022-08-19T01:00:17;20.20;99.90
22842;DHT22;11587;47.064;15.444;2022-08-19T01:02:44;20.20;99.90
22842;DHT22;11587;47.064;15.444;2022-08-19T01:07:37;20.20;99.90
22842;DHT22;11587;47.064;15.444;2022-08-19T01:10:07;20.30;99.90
22842;DHT22;11587;47.064;15.444;2022-08-19T01:12:33;20.30;99.90
22842;DHT22;11587;47.064;15.444;2022-08-19T01:15:00;20.20;99.90
22842;DHT22;11587;47.064;15.444;2022-08-19T01:17:26;20.20;99.90
22842;DHT22;11587;47.064;15.444;2022-08-19T01:19:52;20.30;99.90
22842;DHT22;11587;47.064;15.444;2022-08-19T01:22:43;20.30;99.90
22842;DHT22;11587;47.064;15.444;2022-08-19T01:27:41;20.20;99.90
22842;DHT22;11587;47.064;15.444;2022-08-19T01:30:08;20.30;99.90
22842;DHT22;11587;47.064;15.444;2022-08-19T01:32:34;20.50;99.90
22842;DHT22;11587;47.064;15.444;2022-08-19T01:35:02;20.40;99.90
22842;DHT22;11587;47.064;15.444;2022-08-19T01:39:54;20.30;99.90
22842;DHT22;11587;47.064;15.444;2022-08-19T01:42:20;20.20;99.90
22842;DHT22;11587;47.064;15.444;2022-08-19T01:44:47;20.10;99.90
22842;DHT22;11587;47.064;15.444;2022-08-19T01:47:13;20.20;99.90
22842;DHT22;11587;47.064;15.444;2022-08-19T01:49:42;20.20;99.90
22842;DHT22;11587;47.064;15.444;2022-08-19T01:54:33;20.30;99.90
22842;DHT22;11587;47.064;15.444;2022-08-19T01:57:06;20.20;99.90
22842;DHT22;11587;47.064;15.444;2022-08-19T01:59:34;20.30;99.90
22842;DHT22;11587;47.064;15.444;2022-08-19T02:02:03;20.20;99.90
22842;DHT22;11587;47.064;15.444;2022-08-19T02:04:32;20.20;99.90
22842;DHT22;11587;47.064;15.444;2022-08-19T02:06:59;20.20;99.90
22842;DHT22;11587;47.064;15.444;2022-08-19T02:09:25;20.20;99.90
22842;DHT22;11587;47.064;15.444;2022-08-19T02:11:51;20.20;99.90
22842;DHT22;11587;47.064;15.444;2022-08-19T02:14:18;20.20;99.90
22842;DHT22;11587;47.064;15.444;2022-08-19T02:16:44;20.10;99.90
22842;DHT22;11587;47.064;15.444;2022-08-19T02:24:02;20.10;99.90
22842;DHT22;11587;47.064;15.444;2022-08-19T02:26:28;20.10;99.90
22842;DHT22;11587;47.064;15.444;2022-08-19T02:28:54;20.20;99.90
22842;DHT22;11587;47.064;15.444;2022-08-19T02:33:46;20.30;99.90
22842;DHT22;11587;47.064;15.444;2022-08-19T02:36:13;20.30;99.90
22842;DHT22;11587;47.064;15.444;2022-08-19T02:38:40;20.30;99.90
22842;DHT22;11587;47.064;15.444;2022-08-19T02:41:11;20.30;99.90
22842;DHT22;11587;47.064;15.444;2022-08-19T02:43:37;20.40;99.90
22842;DHT22;11587;47.064;15.444;2022-08-19T02:50:56;20.40;99.90
22842;DHT22;11587;47.064;15.444;2022-08-19T02:53:24;20.30;99.90
22842;DHT22;11587;47.064;15.444;2022-08-19T02:55:51;20.30;99.90
22842;DHT22;11587;47.064;15.444;2022-08-19T02:58:18;20.40;99.90
22842;DHT22;11587;47.064;15.444;2022-08-19T03:00:46;20.40;99.90
22842;DHT22;11587;47.064;15.444;2022-08-19T03:03:12;20.40;99.90
22842;DHT22;11587;47.064;15.444;2022-08-19T03:05:39;20.50;99.90
22842;DHT22;11587;47.064;15.444;2022-08-19T03:08:05;20.50;99.90
22842;DHT22;11587;47.064;15.444;2022-08-19T03:10:32;20.50;99.90
22842;DHT22;11587;47.064;15.444;2022-08-19T03:15:24;20.50;99.90
22842;DHT22;11587;47.064;15.444;2022-08-19T03:17:50;20.40;99.90
22842;DHT22;11587;47.064;15.444;2022-08-19T03:20:16;20.40;99.90
22842;DHT22;11587;47.064;15.444;2022-08-19T03:22:42;20.40;99.90
22842;DHT22;11587;47.064;15.444;2022-08-19T03:25:08;20.50;99.90
22842;DHT22;11587;47.064;15.444;2022-08-19T03:29:59;20.40;99.90
22842;DHT22;11587;47.064;15.444;2022-08-19T03:32:25;20.20;99.90
22842;DHT22;11587;47.064;15.444;2022-08-19T03:34:51;20.30;99.90
22842;DHT22;11587;47.064;15.444;2022-08-19T03:37:18;20.40;99.90
22842;DHT22;11587;47.064;15.444;2022-08-19T03:39:44;20.40;99.90
22842;DHT22;11587;47.064;15.444;2022-08-19T03:44:36;20.20;99.90
22842;DHT22;11587;47.064;15.444;2022-08-19T03:47:04;19.90;99.90
22842;DHT22;11587;47.064;15.444;2022-08-19T03:49:32;19.90;99.90
22842;DHT22;11587;47.064;15.444;2022-08-19T03:52:01;19.80;99.90
22842;DHT22;11587;47.064;15.444;2022-08-19T03:56:55;19.90;99.90
22842;DHT22;11587;47.064;15.444;2022-08-19T03:59:30;19.70;99.90
22842;DHT22;11587;47.064;15.444;2022-08-19T04:01:59;19.60;99.90
22842;DHT22;11587;47.064;15.444;2022-08-19T04:04:25;19.60;99.90
22842;DHT22;11587;47.064;15.444;2022-08-19T04:06:51;19.70;99.90
22842;DHT22;11587;47.064;15.444;2022-08-19T04:11:55;19.90;99.90
22842;DHT22;11587;47.064;15.444;2022-08-19T04:14:24;19.90;99.90
22842;DHT22;11587;47.064;15.444;2022-08-19T04:16:52;20.00;99.90
22842;DHT22;11587;47.064;15.444;2022-08-19T04:19:19;20.10;99.90
22842;DHT22;11587;47.064;15.444;2022-08-19T04:21:47;20.00;99.90
22842;DHT22;11587;47.064;15.444;2022-08-19T04:26:38;20.10;99.90
22842;DHT22;11587;47.064;15.444;2022-08-19T04:29:11;20.20;99.90
22842;DHT22;11587;47.064;15.444;2022-08-19T04:31:37;20.20;99.90
22842;DHT22;11587;47.064;15.444;2022-08-19T04:34:06;20.40;99.90
22842;DHT22;11587;47.064;15.444;2022-08-19T04:36:36;20.70;99.90
22842;DHT22;11587;47.064;15.444;2022-08-19T04:39:06;20.90;99.90
22842;DHT22;11587;47.064;15.444;2022-08-19T04:41:33;21.20;99.90
22842;DHT22;11587;47.064;15.444;2022-08-19T04:44:18;21.30;99.90
22842;DHT22;11587;47.064;15.444;2022-08-19T04:46:48;21.40;99.90
22842;DHT22;11587;47.064;15.444;2022-08-19T04:49:16;21.50;99.90
22842;DHT22;11587;47.064;15.444;2022-08-19T04:51:44;21.50;99.90
22842;DHT22;11587;47.064;15.444;2022-08-19T04:54:11;21.50;99.90
22842;DHT22;11587;47.064;15.444;2022-08-19T04:56:39;21.50;99.90
22842;DHT22;11587;47.064;15.444;2022-08-19T04:59:05;21.60;99.90
22842;DHT22;11587;47.064;15.444;2022-08-19T05:01:32;21.60;99.90
22842;DHT22;11587;47.064;15.444;2022-08-19T05:04:04;21.60;99.90
22842;DHT22;11587;47.064;15.444;2022-08-19T05:06:31;21.60;99.90
22842;DHT22;11587;47.064;15.444;2022-08-19T05:11:26;21.60;99.90
22842;DHT22;11587;47.064;15.444;2022-08-19T05:13:53;21.60;99.90
22842;DHT22;11587;47.064;15.444;2022-08-19T05:16:21;21.70;99.90
22842;DHT22;11587;47.064;15.444;2022-08-19T05:18:47;21.80;99.90
22842;DHT22;11587;47.064;15.444;2022-08-19T05:21:32;21.70;99.90
22842;DHT22;11587;47.064;15.444;2022-08-19T05:26:45;21.70;99.90
22842;DHT22;11587;47.064;15.444;2022-08-19T05:29:17;21.80;99.90
22842;DHT22;11587;47.064;15.444;2022-08-19T05:31:44;21.80;99.90
22842;DHT22;11587;47.064;15.444;2022-08-19T05:34:10;21.90;99.90
22842;DHT22;11587;47.064;15.444;2022-08-19T05:36:41;21.90;99.90
22842;DHT22;11587;47.064;15.444;2022-08-19T05:39:10;21.90;99.90
22842;DHT22;11587;47.064;15.444;2022-08-19T05:44:04;22.20;99.90
22842;DHT22;11587;47.064;15.444;2022-08-19T05:46:35;22.20;99.90
22842;DHT22;11587;47.064;15.444;2022-08-19T05:49:04;22.30;99.90
22842;DHT22;11587;47.064;15.444;2022-08-19T05:51:32;22.30;99.90
22842;DHT22;11587;47.064;15.444;2022-08-19T05:58:50;22.40;99.90
22842;DHT22;11587;47.064;15.444;2022-08-19T06:01:18;22.40;99.90
22842;DHT22;11587;47.064;15.444;2022-08-19T06:03:45;22.50;99.90
22842;DHT22;11587;47.064;15.444;2022-08-19T06:06:13;22.50;99.90
22842;DHT22;11587;47.064;15.444;2022-08-19T06:08:40;22.50;99.90
22842;DHT22;11587;47.064;15.444;2022-08-19T06:13:36;22.50;99.90
22842;DHT22;11587;47.064;15.444;2022-08-19T06:16:02;22.50;99.90
22842;DHT22;11587;47.064;15.444;2022-08-19T06:18:28;22.60;99.90
22842;DHT22;11587;47.064;15.444;2022-08-19T06:25:45;22.80;99.90
22842;DHT22;11587;47.064;15.444;2022-08-19T06:28:11;22.90;99.90
22842;DHT22;11587;47.064;15.444;2022-08-19T06:30:37;23.10;99.90
22842;DHT22;11587;47.064;15.444;2022-08-19T06:33:03;23.10;99.90
22842;DHT22;11587;47.064;15.444;2022-08-19T06:37:55;23.10;99.90
22842;DHT22;11587;47.064;15.444;2022-08-19T06:40:21;23.00;99.90
22842;DHT22;11587;47.064;15.444;2022-08-19T06:42:47;23.00;99.90
22842;DHT22;11587;47.064;15.444;2022-08-19T06:45:14;23.00;99.90
22842;DHT22;11587;47.064;15.444;2022-08-19T06:47:40;23.00;99.90
22842;DHT22;11587;47.064;15.444;2022-08-19T06:52:35;23.10;99.90
22842;DHT22;11587;47.064;15.444;2022-08-19T06:55:01;23.20;99.90
22842;DHT22;11587;47.064;15.444;2022-08-19T06:57:27;23.30;99.90
22842;DHT22;11587;47.064;15.444;2022-08-19T06:59:58;23.40;99.90
22842;DHT22;11587;47.064;15.444;2022-08-19T07:02:25;23.30;99.90
22842;DHT22;11587;47.064;15.444;2022-08-19T07:07:17;23.60;99.90
22842;DHT22;11587;47.064;15.444;2022-08-19T07:09:44;23.70;99.90
22842;DHT22;11587;47.064;15.444;2022-08-19T07:12:12;23.80;99.90
22842;DHT22;11587;47.064;15.444;2022-08-19T07:19:33;23.60;99.90
22842;DHT22;11587;47.064;15.444;2022-08-19T07:22:02;23.60;99.90
22842;DHT22;11587;47.064;15.444;2022-08-19T07:24:29;23.50;99.90
22842;DHT22;11587;47.064;15.444;2022-08-19T07:26:58;23.50;99.90
22842;DHT22;11587;47.064;15.444;2022-08-19T07:29:31;23.30;99.90
22842;DHT22;11587;47.064;15.444;2022-08-19T07:34:24;23.20;99.90
22842;DHT22;11587;47.064;15.444;2022-08-19T07:36:51;23.20;99.90
22842;DHT22;11587;47.064;15.444;2022-08-19T07:39:21;23.20;99.90
22842;DHT22;11587;47.064;15.444;2022-08-19T07:41:48;23.20;99.90
22842;DHT22;11587;47.064;15.444;2022-08-19T07:49:06;23.30;99.90
22842;DHT22;11587;47.064;15.444;2022-08-19T07:51:33;23.20;99.90
22842;DHT22;11587;47.064;15.444;2022-08-19T07:53:59;23.10;99.90
22842;DHT22;11587;47.064;15.444;2022-08-19T07:58:52;23.00;99.90
22842;DHT22;11587;47.064;15.444;2022-08-19T08:01:23;23.00;99.90
22842;DHT22;11587;47.064;15.444;2022-08-19T08:03:51;23.00;99.90
22842;DHT22;11587;47.064;15.444;2022-08-19T08:06:36;22.90;99.90
22842;DHT22;11587;47.064;15.444;2022-08-19T08:09:26;22.80;99.90
22842;DHT22;11587;47.064;15.444;2022-08-19T08:11:56;22.80;99.90
22842;DHT22;11587;47.064;15.444;2022-08-19T08:19:14;22.30;99.90
22842;DHT22;11587;47.064;15.444;2022-08-19T08:21:41;22.10;99.90
22842;DHT22;11587;47.064;15.444;2022-08-19T08:24:08;21.90;99.90
22842;DHT22;11587;47.064;15.444;2022-08-19T08:26:34;21.70;99.90
22842;DHT22;11587;47.064;15.444;2022-08-19T08:33:51;21.60;99.90
22842;DHT22;11587;47.064;15.444;2022-08-19T08:36:17;21.70;99.90
22842;DHT22;11587;47.064;15.444;2022-08-19T08:38:44;21.70;99.90
22842;DHT22;11587;47.064;15.444;2022-08-19T08:51:52;21.60;99.90
22842;DHT22;11587;47.064;15.444;2022-08-19T08:54:25;21.80;99.90
22842;DHT22;11587;47.064;15.444;2022-08-19T08:56:53;22.00;99.90
22842;DHT22;11587;47.064;15.444;2022-08-19T09:04:13;22.40;99.90
22842;DHT22;11587;47.064;15.444;2022-08-19T09:06:51;22.50;99.90
22842;DHT22;11587;47.064;15.444;2022-08-19T09:09:25;22.70;99.90
22842;DHT22;11587;47.064;15.444;2022-08-19T09:12:08;22.70;99.90
22842;DHT22;11587;47.064;15.444;2022-08-19T09:21:57;22.40;99.90
22842;DHT22;11587;47.064;15.444;2022-08-19T09:24:26;22.40;99.90
22842;DHT22;11587;47.064;15.444;2022-08-19T09:26:52;22.40;99.90
22842;DHT22;11587;47.064;15.444;2022-08-19T09:29:19;22.40;99.90
22842;DHT22;11587;47.064;15.444;2022-08-19T09:31:46;22.50;99.90
22842;DHT22;11587;47.064;15.444;2022-08-19T09:34:12;22.60;99.90
22842;DHT22;11587;47.064;15.444;2022-08-19T09:36:38;22.50;99.90
22842;DHT22;11587;47.064;15.444;2022-08-19T09:39:05;22.70;99.90
22842;DHT22;11587;47.064;15.444;2022-08-19T09:41:31;22.80;99.90
22842;DHT22;11587;47.064;15.444;2022-08-19T09:48:49;23.20;99.90
22842;DHT22;11587;47.064;15.444;2022-08-19T09:51:22;23.20;99.90
22842;DHT22;11587;47.064;15.444;2022-08-19T09:53:49;23.20;99.90
22842;DHT22;11587;47.064;15.444;2022-08-19T09:56:17;23.40;99.90
22842;DHT22;11587;47.064;15.444;2022-08-19T09:58:44;23.50;99.90
22842;DHT22;11587;47.064;15.444;2022-08-19T10:01:16;23.50;99.90
22842;DHT22;11587;47.064;15.444;2022-08-19T10:03:42;23.50;99.90
22842;DHT22;11587;47.064;15.444;2022-08-19T10:06:08;23.40;99.90
22842;DHT22;11587;47.064;15.444;2022-08-19T10:08:36;23.40;99.90
22842;DHT22;11587;47.064;15.444;2022-08-19T10:11:03;23.30;99.90
22842;DHT22;11587;47.064;15.444;2022-08-19T10:18:22;23.30;99.90
22842;DHT22;11587;47.064;15.444;2022-08-19T10:20:49;23.40;99.90
22842;DHT22;11587;47.064;15.444;2022-08-19T10:23:17;23.30;99.90
22842;DHT22;11587;47.064;15.444;2022-08-19T10:30:36;23.70;99.90
22842;DHT22;11587;47.064;15.444;2022-08-19T10:33:01;23.40;99.90
22842;DHT22;11587;47.064;15.444;2022-08-19T10:35:27;23.50;99.90
22842;DHT22;11587;47.064;15.444;2022-08-19T10:37:55;23.40;99.90
22842;DHT22;11587;47.064;15.444;2022-08-19T10:40:26;23.50;99.90
22842;DHT22;11587;47.064;15.444;2022-08-19T10:42:54;23.60;99.90
22842;DHT22;11587;47.064;15.444;2022-08-19T10:45:21;23.60;99.90
22842;DHT22;11587;47.064;15.444;2022-08-19T10:47:50;24.00;99.90
22842;DHT22;11587;47.064;15.444;2022-08-19T10:50:16;24.50;99.90
22842;DHT22;11587;47.064;15.444;2022-08-19T10:53:05;24.80;99.90
22842;DHT22;11587;47.064;15.444;2022-08-19T11:00:23;25.10;99.90
22842;DHT22;11587;47.064;15.444;2022-08-19T11:02:50;25.10;99.90
22842;DHT22;11587;47.064;15.444;2022-08-19T11:05:17;25.10;99.90
22842;DHT22;11587;47.064;15.444;2022-08-19T11:07:44;25.40;99.90
22842;DHT22;11587;47.064;15.444;2022-08-19T11:12:37;25.10;99.90
22842;DHT22;11587;47.064;15.444;2022-08-19T11:15:08;25.40;99.90
22842;DHT22;11587;47.064;15.444;2022-08-19T11:17:38;25.80;99.90
22842;DHT22;11587;47.064;15.444;2022-08-19T11:20:07;25.80;99.90
22842;DHT22;11587;47.064;15.444;2022-08-19T11:22:33;25.90;99.90
22842;DHT22;11587;47.064;15.444;2022-08-19T11:27:26;27.00;99.90
22842;DHT22;11587;47.064;15.444;2022-08-19T11:29:52;27.20;99.90
22842;DHT22;11587;47.064;15.444;2022-08-19T11:32:18;27.20;99.90
22842;DHT22;11587;47.064;15.444;2022-08-19T11:34:44;26.80;99.90
22842;DHT22;11587;47.064;15.444;2022-08-19T11:39:36;26.10;99.90
22842;DHT22;11587;47.064;15.444;2022-08-19T11:42:03;26.10;99.90
22842;DHT22;11587;47.064;15.444;2022-08-19T11:44:50;25.80;99.90
22842;DHT22;11587;47.064;15.444;2022-08-19T11:47:16;26.20;99.90
22842;DHT22;11587;47.064;15.444;2022-08-19T11:49:42;26.20;99.90
22842;DHT22;11587;47.064;15.444;2022-08-19T11:57:01;26.80;99.90
22842;DHT22;11587;47.064;15.444;2022-08-19T11:59:28;27.20;99.90
22842;DHT22;11587;47.064;15.444;2022-08-19T12:01:55;27.30;99.90
22842;DHT22;11587;47.064;15.444;2022-08-19T12:04:22;27.30;99.90
22842;DHT22;11587;47.064;15.444;2022-08-19T12:06:48;27.30;99.90
22842;DHT22;11587;47.064;15.444;2022-08-19T12:11:41;28.10;99.90
22842;DHT22;11587;47.064;15.444;2022-08-19T12:14:10;28.60;99.90
22842;DHT22;11587;47.064;15.444;2022-08-19T12:16:36;28.80;99.90
22842;DHT22;11587;47.064;15.444;2022-08-19T12:23:53;29.20;99.90
22842;DHT22;11587;47.064;15.444;2022-08-19T12:26:20;29.20;99.90
22842;DHT22;11587;47.064;15.444;2022-08-19T12:28:46;29.70;99.90
22842;DHT22;11587;47.064;15.444;2022-08-19T12:31:13;30.40;99.90
22842;DHT22;11587;47.064;15.444;2022-08-19T12:33:40;30.80;99.90
22842;DHT22;11587;47.064;15.444;2022-08-19T12:38:32;32.30;99.90
22842;DHT22;11587;47.064;15.444;2022-08-19T12:41:00;32.40;99.90
22842;DHT22;11587;47.064;15.444;2022-08-19T12:43:28;33.00;99.90
22842;DHT22;11587;47.064;15.444;2022-08-19T12:50:46;34.00;99.90
22842;DHT22;11587;47.064;15.444;2022-08-19T12:53:12;35.60;99.90
22842;DHT22;11587;47.064;15.444;2022-08-19T12:55:38;36.30;99.90
22842;DHT22;11587;47.064;15.444;2022-08-19T12:58:04;37.60;99.90
22842;DHT22;11587;47.064;15.444;2022-08-19T13:02:55;36.60;99.90
22842;DHT22;11587;47.064;15.444;2022-08-19T13:05:29;36.20;99.90
22842;DHT22;11587;47.064;15.444;2022-08-19T13:07:57;36.30;99.90
22842;DHT22;11587;47.064;15.444;2022-08-19T13:10:28;38.40;99.00
22842;DHT22;11587;47.064;15.444;2022-08-19T13:12:55;36.10;99.70
22842;DHT22;11587;47.064;15.444;2022-08-19T13:15:22;35.60;99.90
22842;DHT22;11587;47.064;15.444;2022-08-19T13:17:50;34.00;99.90
22842;DHT22;11587;47.064;15.444;2022-08-19T13:20:17;34.10;99.90
22842;DHT22;11587;47.064;15.444;2022-08-19T13:22:45;32.80;99.90
22842;DHT22;11587;47.064;15.444;2022-08-19T13:25:12;33.40;99.90
22842;DHT22;11587;47.064;15.444;2022-08-19T13:32:29;33.30;99.90
22842;DHT22;11587;47.064;15.444;2022-08-19T13:35:14;33.20;99.90
22842;DHT22;11587;47.064;15.444;2022-08-19T13:37:40;32.50;99.90
22842;DHT22;11587;47.064;15.444;2022-08-19T13:40:18;32.80;99.90
22842;DHT22;11587;47.064;15.444;2022-08-19T13:42:48;32.90;99.90
22842;DHT22;11587;47.064;15.444;2022-08-19T13:45:15;32.90;99.90
22842;DHT22;11587;47.064;15.444;2022-08-19T13:50:14;35.60;99.90
22842;DHT22;11587;47.064;15.444;2022-08-19T13:52:41;36.50;99.90
22842;DHT22;11587;47.064;15.444;2022-08-19T13:55:08;37.10;99.90
22842;DHT22;11587;47.064;15.444;2022-08-19T14:02:25;38.30;97.60
22842;DHT22;11587;47.064;15.444;2022-08-19T14:04:52;37.60;98.10
22842;DHT22;11587;47.064;15.444;2022-08-19T14:07:18;38.30;97.80
22842;DHT22;11587;47.064;15.444;2022-08-19T14:09:44;37.50;97.90
22842;DHT22;11587;47.064;15.444;2022-08-19T14:14:37;36.20;97.30
22842;DHT22;11587;47.064;15.444;2022-08-19T14:17:07;34.60;99.10
22842;DHT22;11587;47.064;15.444;2022-08-19T14:19:33;35.90;99.40
22842;DHT22;11587;47.064;15.444;2022-08-19T14:21:59;36.60;98.80
22842;DHT22;11587;47.064;15.444;2022-08-19T14:26:51;37.10;98.10
22842;DHT22;11587;47.064;15.444;2022-08-19T14:29:17;36.60;97.50
22842;DHT22;11587;47.064;15.444;2022-08-19T14:31:43;36.10;97.80
22842;DHT22;11587;47.064;15.444;2022-08-19T14:34:10;36.00;99.40
22842;DHT22;11587;47.064;15.444;2022-08-19T14:36:36;36.20;99.00
22842;DHT22;11587;47.064;15.444;2022-08-19T14:39:04;37.00;98.30
22842;DHT22;11587;47.064;15.444;2022-08-19T14:43:55;36.10;96.80
22842;DHT22;11587;47.064;15.444;2022-08-19T14:46:24;35.60;97.70
22842;DHT22;11587;47.064;15.444;2022-08-19T14:48:51;34.30;99.20
22842;DHT22;11587;47.064;15.444;2022-08-19T14:56:09;34.60;99.90
22842;DHT22;11587;47.064;15.444;2022-08-19T14:58:35;34.10;99.90
22842;DHT22;11587;47.064;15.444;2022-08-19T15:01:01;34.10;99.90
22842;DHT22;11587;47.064;15.444;2022-08-19T15:03:29;34.00;99.90
22842;DHT22;11587;47.064;15.444;2022-08-19T15:05:56;34.10;99.90
22842;DHT22;11587;47.064;15.444;2022-08-19T15:08:23;33.50;99.90
22842;DHT22;11587;47.064;15.444;2022-08-19T15:10:51;33.60;99.90
22842;DHT22;11587;47.064;15.444;2022-08-19T15:13:17;32.40;99.90
22842;DHT22;11587;47.064;15.444;2022-08-19T15:15:43;32.00;99.90
22842;DHT22;11587;47.064;15.444;2022-08-19T15:23:02;31.20;99.90
22842;DHT22;11587;47.064;15.444;2022-08-19T15:25:27;31.20;99.90
22842;DHT22;11587;47.064;15.444;2022-08-19T15:27:54;31.20;99.90
22842;DHT22;11587;47.064;15.444;2022-08-19T15:30:23;31.20;99.90
22842;DHT22;11587;47.064;15.444;2022-08-19T15:37:40;30.20;99.90
22842;DHT22;11587;47.064;15.444;2022-08-19T15:40:07;29.80;99.90
22842;DHT22;11587;47.064;15.444;2022-08-19T15:42:36;29.60;99.90
22842;DHT22;11587;47.064;15.444;2022-08-19T15:47:28;29.20;99.90
22842;DHT22;11587;47.064;15.444;2022-08-19T15:49:54;29.20;99.90
22842;DHT22;11587;47.064;15.444;2022-08-19T15:52:20;29.00;99.90
22842;DHT22;11587;47.064;15.444;2022-08-19T15:54:46;28.70;99.90
22842;DHT22;11587;47.064;15.444;2022-08-19T15:57:12;28.60;99.90
22842;DHT22;11587;47.064;15.444;2022-08-19T16:02:13;28.50;99.90
22842;DHT22;11587;47.064;15.444;2022-08-19T16:04:58;28.50;99.90
22842;DHT22;11587;47.064;15.444;2022-08-19T16:07:42;28.40;99.90
22842;DHT22;11587;47.064;15.444;2022-08-19T16:10:08;28.20;99.90
22842;DHT22;11587;47.064;15.444;2022-08-19T16:12:34;28.00;99.90
22842;DHT22;11587;47.064;15.444;2022-08-19T16:15:00;28.00;99.90
22842;DHT22;11587;47.064;15.444;2022-08-19T16:17:26;28.00;99.90
22842;DHT22;11587;47.064;15.444;2022-08-19T16:22:20;27.80;99.90
22842;DHT22;11587;47.064;15.444;2022-08-19T16:24:52;27.80;99.90
22842;DHT22;11587;47.064;15.444;2022-08-19T16:27:18;27.80;99.90
22842;DHT22;11587;47.064;15.444;2022-08-19T16:34:35;27.60;99.90
22842;DHT22;11587;47.064;15.444;2022-08-19T16:37:02;27.60;99.90
22842;DHT22;11587;47.064;15.444;2022-08-19T16:39:28;27.60;99.90
22842;DHT22;11587;47.064;15.444;2022-08-19T16:41:54;27.70;99.90
22842;DHT22;11587;47.064;15.444;2022-08-19T16:49:12;27.00;99.90
22842;DHT22;11587;47.064;15.444;2022-08-19T16:51:38;27.00;99.90
22842;DHT22;11587;47.064;15.444;2022-08-19T16:54:04;26.80;99.90
22842;DHT22;11587;47.064;15.444;2022-08-19T16:58:56;26.80;99.90
22842;DHT22;11587;47.064;15.444;2022-08-19T17:01:24;26.90;99.90
22842;DHT22;11587;47.064;15.444;2022-08-19T17:03:52;26.90;99.90
22842;DHT22;11587;47.064;15.444;2022-08-19T17:06:21;26.80;99.90
22842;DHT22;11587;47.064;15.444;2022-08-19T17:08:53;26.80;99.90
22842;DHT22;11587;47.064;15.444;2022-08-19T17:14:21;26.80;99.90
22842;DHT22;11587;47.064;15.444;2022-08-19T17:19:13;26.00;99.90
22842;DHT22;11587;47.064;15.444;2022-08-19T17:21:39;25.20;99.90
22842;DHT22;11587;47.064;15.444;2022-08-19T17:24:06;24.50;99.90
22842;DHT22;11587;47.064;15.444;2022-08-19T17:26:34;24.20;99.90
22842;DHT22;11587;47.064;15.444;2022-08-19T17:29:00;24.00;99.90
22842;DHT22;11587;47.064;15.444;2022-08-19T17:31:27;23.80;99.90
22842;DHT22;11587;47.064;15.444;2022-08-19T17:33:54;23.80;99.90
22842;DHT22;11587;47.064;15.444;2022-08-19T17:36:25;23.60;99.90
22842;DHT22;11587;47.064;15.444;2022-08-19T17:38:54;23.60;99.90
22842;DHT22;11587;47.064;15.444;2022-08-19T17:46:11;23.50;99.90
22842;DHT22;11587;47.064;15.444;2022-08-19T17:48:50;23.50;99.90
22842;DHT22;11587;47.064;15.444;2022-08-19T17:51:45;23.40;99.90
22842;DHT22;11587;47.064;15.444;2022-08-19T17:54:14;23.50;99.90
22842;DHT22;11587;47.064;15.444;2022-08-19T17:56:41;23.60;99.90
22842;DHT22;11587;47.064;15.444;2022-08-19T17:59:07;23.60;99.90
22842;DHT22;11587;47.064;15.444;2022-08-19T18:01:33;23.50;99.90
22842;DHT22;11587;47.064;15.444;2022-08-19T18:03:59;23.50;99.90
22842;DHT22;11587;47.064;15.444;2022-08-19T18:06:27;23.60;99.90
22842;DHT22;11587;47.064;15.444;2022-08-19T18:08:53;23.60;99.90
22842;DHT22;11587;47.064;15.444;2022-08-19T18:11:19;23.60;99.90
22842;DHT22;11587;47.064;15.444;2022-08-19T18:16:11;23.70;99.90
22842;DHT22;11587;47.064;15.444;2022-08-19T18:18:41;23.50;99.90
22842;DHT22;11587;47.064;15.444;2022-08-19T18:21:08;23.70;99.90
22842;DHT22;11587;47.064;15.444;2022-08-19T18:23:36;23.70;99.90
22842;DHT22;11587;47.064;15.444;2022-08-19T18:28:35;23.80;99.90
22842;DHT22;11587;47.064;15.444;2022-08-19T18:31:05;23.80;99.90
22842;DHT22;11587;47.064;15.444;2022-08-19T18:33:31;23.80;99.90
22842;DHT22;11587;47.064;15.444;2022-08-19T18:35:59;23.80;99.90
22842;DHT22;11587;47.064;15.444;2022-08-19T18:38:26;23.80;99.90
22842;DHT22;11587;47.064;15.444;2022-08-19T18:41:10;23.70;99.90
22842;DHT22;11587;47.064;15.444;2022-08-19T18:48:46;23.70;99.90
22842;DHT22;11587;47.064;15.444;2022-08-19T18:51:30;23.70;99.90
22842;DHT22;11587;47.064;15.444;2022-08-19T18:53:58;23.70;99.90
22842;DHT22;11587;47.064;15.444;2022-08-19T18:56:25;23.70;99.90
22842;DHT22;11587;47.064;15.444;2022-08-19T18:58:59;23.70;99.90
22842;DHT22;11587;47.064;15.444;2022-08-19T19:01:30;23.70;99.90
22842;DHT22;11587;47.064;15.444;2022-08-19T19:04:00;23.70;99.90
22842;DHT22;11587;47.064;15.444;2022-08-19T19:06:35;23.70;99.90
22842;DHT22;11587;47.064;15.444;2022-08-19T19:09:10;23.60;99.90
22842;DHT22;11587;47.064;15.444;2022-08-19T19:11:40;23.60;99.90
22842;DHT22;11587;47.064;15.444;2022-08-19T19:14:11;23.60;99.90
22842;DHT22;11587;47.064;15.444;2022-08-19T19:21:28;23.60;99.90
22842;DHT22;11587;47.064;15.444;2022-08-19T19:23:54;23.50;99.90
22842;DHT22;11587;47.064;15.444;2022-08-19T19:26:20;23.50;99.90
22842;DHT22;11587;47.064;15.444;2022-08-19T19:31:15;23.50;99.90